Time;durP1;ratioP1;P1;durP2;ratioP2;P2;SDS_P1;SDS_P2;PMS_P1;PMS_P2;Temp;Humidity;BMP_temperature;BMP_pressure;BME280_temperature;BME280_humidity;BME280_pressure;Samples;Min_cycle;Max_cycle;Signal;HPM_P1;HPM_P2
2023/01/27 00:00:54;;;;;;;9.55;8.65;;;;;;;;;;5036576;28;20864;-82
2023/01/27 00:03:20;;;;;;;10.63;9.63;;;;;;;;;;5035334;28;20946;-83
2023/01/27 00:05:47;;;;;;;10.40;9.45;;;;;;;;;;5037622;28;20383;-83
2023/01/27 00:08:13;;;;;;;10.02;9.13;;;;;;;;;;5037359;28;20390;-83
2023/01/27 00:10:39;;;;;;;11.02;10.02;;;;;;;;;;5038413;28;20489;-82
2023/01/27 00:15:50;;;;;;;10.63;9.63;;;;;;;;;;5039833;28;20999;-83
2023/01/27 00:18:16;;;;;;;10.20;9.30;;;;;;;;;;5037028;28;20930;-83
2023/01/27 00:26:13;;;;;;;11.45;10.45;;;;;;;;;;5036981;28;20440;-82
2023/01/27 00:28:40;;;;;;;11.95;10.93;;;;;;;;;;5035108;28;20391;-83
2023/01/27 00:33:52;;;;;;;8.75;7.95;;;;;;;;;;5036675;28;20407;-83
2023/01/27 00:36:18;;;;;;;8.25;7.55;;;;;;;;;;5042771;28;20394;-83
2023/01/27 00:38:44;;;;;;;8.27;7.57;;;;;;;;;;5018168;28;20394;-83
2023/01/27 00:41:20;;;;;;;8.73;7.93;;;;;;;;;;5036568;28;20389;-83
2023/01/27 00:43:46;;;;;;;8.90;8.20;;;;;;;;;;5038735;28;20407;-83
2023/01/27 00:46:12;;;;;;;9.68;8.88;;;;;;;;;;5034828;28;20383;-83
2023/01/27 00:48:38;;;;;;;11.50;10.50;;;;;;;;;;5019473;28;20387;-83
2023/01/27 00:51:04;;;;;;;10.68;9.77;;;;;;;;;;5042164;28;20435;-83
2023/01/27 00:53:30;;;;;;;9.30;8.50;;;;;;;;;;5045235;28;20417;-83
2023/01/27 00:55:59;;;;;;;9.68;8.88;;;;;;;;;;5021483;28;20395;-83
2023/01/27 00:58:26;;;;;;;8.70;8.00;;;;;;;;;;5041196;28;20374;-83
2023/01/27 01:00:53;;;;;;;9.05;8.30;;;;;;;;;;5045141;28;20377;-83
2023/01/27 01:03:19;;;;;;;9.07;8.27;;;;;;;;;;5051097;28;20411;-83
2023/01/27 01:05:45;;;;;;;8.82;8.02;;;;;;;;;;5048554;28;20377;-83
2023/01/27 01:08:11;;;;;;;9.50;8.70;;;;;;;;;;5032435;28;20918;-83
2023/01/27 01:10:38;;;;;;;8.10;7.40;;;;;;;;;;5044202;28;20878;-83
2023/01/27 01:13:06;;;;;;;8.07;7.38;;;;;;;;;;5037076;28;20387;-83
2023/01/27 01:15:34;;;;;;;7.80;7.10;;;;;;;;;;5039298;28;20387;-84
2023/01/27 01:18:00;;;;;;;8.23;7.53;;;;;;;;;;5048851;28;20466;-83
2023/01/27 01:20:26;;;;;;;7.40;6.80;;;;;;;;;;5044546;28;20488;-82
2023/01/27 01:22:52;;;;;;;7.57;6.97;;;;;;;;;;5049771;28;20389;-82
2023/01/27 01:25:18;;;;;;;7.70;7.00;;;;;;;;;;5045507;28;20411;-83
2023/01/27 01:27:44;;;;;;;7.68;7.00;;;;;;;;;;5021525;28;20435;-83
2023/01/27 01:30:11;;;;;;;8.70;8.00;;;;;;;;;;5034685;28;20454;-83
2023/01/27 01:32:37;;;;;;;9.37;8.47;;;;;;;;;;5037986;28;20418;-83
2023/01/27 01:35:03;;;;;;;8.32;7.63;;;;;;;;;;5031994;28;20434;-83
2023/01/27 01:37:29;;;;;;;8.00;7.30;;;;;;;;;;5017864;28;20442;-83
2023/01/27 01:39:55;;;;;;;7.53;6.93;;;;;;;;;;5019045;28;20406;-82
2023/01/27 01:42:21;;;;;;;7.43;6.82;;;;;;;;;;5016838;28;20383;-82
2023/01/27 01:44:47;;;;;;;7.75;7.05;;;;;;;;;;5034637;28;20417;-83
2023/01/27 01:47:16;;;;;;;8.10;7.43;;;;;;;;;;5033602;28;20375;-83
2023/01/27 01:49:44;;;;;;;9.13;8.32;;;;;;;;;;5037744;28;20373;-82
2023/01/27 01:52:13;;;;;;;9.35;8.45;;;;;;;;;;5031599;28;20891;-83
2023/01/27 01:54:51;;;;;;;9.35;8.55;;;;;;;;;;5038405;28;20391;-83
2023/01/27 01:57:19;;;;;;;9.10;8.30;;;;;;;;;;5033023;28;20442;-83
2023/01/27 01:59:50;;;;;;;9.85;9.05;;;;;;;;;;5038499;28;20428;-83
2023/01/27 02:02:18;;;;;;;9.80;8.90;;;;;;;;;;5034727;28;20445;-83
2023/01/27 02:05:03;;;;;;;9.90;9.10;;;;;;;;;;5034523;28;20417;-83
2023/01/27 02:07:39;;;;;;;9.65;8.75;;;;;;;;;;5035379;28;20474;-83
2023/01/27 02:10:06;;;;;;;9.77;8.93;;;;;;;;;;5036580;28;20394;-83
2023/01/27 02:12:32;;;;;;;9.70;8.90;;;;;;;;;;5034457;28;20902;-83
2023/01/27 02:14:58;;;;;;;9.38;8.57;;;;;;;;;;5037039;28;20401;-83
2023/01/27 02:17:24;;;;;;;9.05;8.25;;;;;;;;;;5034267;28;20387;-83
2023/01/27 02:19:53;;;;;;;8.88;8.15;;;;;;;;;;5035247;28;20424;-81
2023/01/27 02:22:26;;;;;;;8.45;7.75;;;;;;;;;;5034607;28;20452;-82
2023/01/27 02:24:55;;;;;;;8.43;7.73;;;;;;;;;;5033822;28;20597;-82
2023/01/27 02:27:21;;;;;;;8.18;7.47;;;;;;;;;;5033415;28;20460;-84
2023/01/27 02:29:47;;;;;;;7.70;7.03;;;;;;;;;;5033361;28;20869;-83
2023/01/27 02:32:26;;;;;;;7.97;7.28;;;;;;;;;;5034998;28;20392;-83
2023/01/27 02:34:52;;;;;;;7.33;6.73;;;;;;;;;;5034409;28;20562;-83
2023/01/27 02:37:19;;;;;;;8.00;7.30;;;;;;;;;;5034433;28;20519;-84
2023/01/27 02:39:45;;;;;;;7.30;6.70;;;;;;;;;;5035761;28;20386;-83
2023/01/27 02:42:14;;;;;;;7.07;6.47;;;;;;;;;;5033494;28;20406;-83
2023/01/27 02:44:39;;;;;;;7.05;6.45;;;;;;;;;;5033916;28;20418;-84
2023/01/27 02:47:06;;;;;;;7.13;6.53;;;;;;;;;;5015192;28;20383;-83
2023/01/27 02:49:32;;;;;;;7.28;6.57;;;;;;;;;;5037818;28;20857;-84
2023/01/27 02:51:58;;;;;;;7.35;6.65;;;;;;;;;;5034499;28;20393;-83
2023/01/27 02:54:25;;;;;;;7.95;7.25;;;;;;;;;;5034098;28;20497;-84
2023/01/27 02:56:51;;;;;;;7.18;6.57;;;;;;;;;;5035576;28;20459;-83
2023/01/27 02:59:17;;;;;;;7.20;6.60;;;;;;;;;;5037105;28;20951;-82
2023/01/27 03:01:43;;;;;;;7.80;7.10;;;;;;;;;;5033693;28;20398;-84
2023/01/27 03:04:10;;;;;;;6.82;6.22;;;;;;;;;;5032171;28;20419;-83
2023/01/27 03:06:36;;;;;;;7.15;6.55;;;;;;;;;;5032159;28;20375;-83
2023/01/27 03:09:03;;;;;;;7.05;6.45;;;;;;;;;;5039482;28;21104;-83
2023/01/27 03:14:14;;;;;;;6.50;5.97;;;;;;;;;;5038744;28;20865;-83
2023/01/27 03:19:25;;;;;;;7.20;6.60;;;;;;;;;;5040529;28;20861;-83
2023/01/27 03:21:52;;;;;;;7.05;6.45;;;;;;;;;;5019616;28;20760;-82
2023/01/27 03:24:19;;;;;;;6.60;6.00;;;;;;;;;;5036911;28;20784;-83
2023/01/27 03:26:45;;;;;;;7.00;6.40;;;;;;;;;;5033629;28;20383;-83
2023/01/27 03:31:56;;;;;;;6.40;5.90;;;;;;;;;;5030636;28;20378;-82
2023/01/27 03:34:22;;;;;;;6.80;6.25;;;;;;;;;;5031888;28;20423;-83
2023/01/27 03:47:46;;;;;;;6.10;5.60;;;;;;;;;;5032838;28;20794;-83
2023/01/27 03:50:14;;;;;;;6.40;5.80;;;;;;;;;;5033720;28;20387;-83
2023/01/27 03:52:40;;;;;;;6.40;5.80;;;;;;;;;;5031623;28;20379;-83
2023/01/27 03:55:08;;;;;;;6.03;5.53;;;;;;;;;;5031959;28;20379;-83
2023/01/27 03:57:42;;;;;;;7.03;6.43;;;;;;;;;;5030783;28;20383;-84
2023/01/27 04:00:10;;;;;;;6.43;5.82;;;;;;;;;;5030734;28;20378;-83
2023/01/27 04:08:05;;;;;;;6.75;6.20;;;;;;;;;;5031919;28;20386;-83
2023/01/27 04:10:31;;;;;;;7.40;6.70;;;;;;;;;;5015412;28;20396;-83
2023/01/27 04:12:57;;;;;;;7.93;7.13;;;;;;;;;;5033679;28;20391;-83
2023/01/27 04:15:23;;;;;;;8.20;7.50;;;;;;;;;;5028971;28;20383;-83
2023/01/27 04:17:49;;;;;;;8.65;7.85;;;;;;;;;;5041662;28;20883;-83
2023/01/27 04:20:15;;;;;;;9.35;8.35;;;;;;;;;;5050404;28;20384;-83
2023/01/27 04:22:41;;;;;;;10.18;9.18;;;;;;;;;;5044947;28;20401;-83
2023/01/27 04:25:07;;;;;;;9.55;8.70;;;;;;;;;;5051213;28;20408;-83
2023/01/27 04:27:33;;;;;;;10.00;8.95;;;;;;;;;;5050113;28;20396;-83
2023/01/27 04:29:59;;;;;;;10.80;9.70;;;;;;;;;;5051406;28;20895;-83
2023/01/27 04:32:26;;;;;;;10.57;9.57;;;;;;;;;;5051129;28;20373;-83
2023/01/27 04:34:53;;;;;;;11.27;10.27;;;;;;;;;;5052442;28;20477;-83
2023/01/27 04:37:19;;;;;;;11.27;10.18;;;;;;;;;;5054301;28;20388;-83
2023/01/27 04:39:46;;;;;;;11.43;10.35;;;;;;;;;;5051323;28;20466;-83
2023/01/27 04:42:12;;;;;;;11.77;10.77;;;;;;;;;;5032417;28;20821;-83
2023/01/27 04:44:38;;;;;;;11.03;9.93;;;;;;;;;;5064487;28;20440;-83
2023/01/27 04:47:04;;;;;;;11.32;10.32;;;;;;;;;;5063870;28;20373;-82
2023/01/27 04:49:30;;;;;;;11.57;10.48;;;;;;;;;;5048788;28;20471;-81
2023/01/27 04:51:56;;;;;;;11.68;10.55;;;;;;;;;;5054483;28;20453;-83
2023/01/27 04:54:22;;;;;;;12.70;11.50;;;;;;;;;;5049184;28;20411;-83
2023/01/27 04:56:55;;;;;;;12.60;11.30;;;;;;;;;;5053300;28;20439;-83
2023/01/27 04:59:21;;;;;;;13.07;11.77;;;;;;;;;;5055007;28;20435;-83
2023/01/27 05:01:47;;;;;;;12.93;11.63;;;;;;;;;;5054953;28;20469;-83
2023/01/27 05:04:14;;;;;;;13.00;11.80;;;;;;;;;;5054136;28;20401;-82
2023/01/27 05:06:40;;;;;;;13.75;12.45;;;;;;;;;;5054093;28;20376;-84
2023/01/27 05:09:06;;;;;;;14.77;13.30;;;;;;;;;;5054645;28;20453;-83
2023/01/27 05:11:32;;;;;;;14.25;12.75;;;;;;;;;;5041384;28;20768;-83
2023/01/27 05:13:57;;;;;;;14.48;12.85;;;;;;;;;;5053966;28;20380;-83
2023/01/27 05:16:26;;;;;;;14.25;12.75;;;;;;;;;;5054555;28;20936;-83
2023/01/27 05:18:52;;;;;;;14.50;13.07;;;;;;;;;;5045203;28;20383;-82
2023/01/27 05:21:22;;;;;;;13.98;12.52;;;;;;;;;;5054527;28;20881;-83
2023/01/27 05:23:48;;;;;;;14.32;12.90;;;;;;;;;;5054142;28;20409;-83
2023/01/27 05:26:16;;;;;;;14.07;12.68;;;;;;;;;;5054271;28;20392;-83
2023/01/27 05:28:43;;;;;;;13.75;12.35;;;;;;;;;;5054219;28;20522;-83
2023/01/27 05:31:11;;;;;;;13.85;12.35;;;;;;;;;;5054225;28;20407;-83
2023/01/27 05:33:37;;;;;;;13.50;12.20;;;;;;;;;;5053759;28;20863;-83
2023/01/27 05:36:04;;;;;;;13.33;11.93;;;;;;;;;;5052254;28;20411;-83
2023/01/27 05:38:30;;;;;;;15.32;13.15;;;;;;;;;;5053934;28;20400;-83
2023/01/27 05:41:00;;;;;;;14.05;12.65;;;;;;;;;;5054026;28;20382;-83
2023/01/27 05:43:26;;;;;;;15.75;12.77;;;;;;;;;;5053729;28;20373;-83
2023/01/27 05:45:53;;;;;;;14.35;12.90;;;;;;;;;;5052892;28;20386;-83
2023/01/27 05:48:19;;;;;;;14.37;12.87;;;;;;;;;;5054049;28;20409;-83
2023/01/27 05:50:53;;;;;;;13.75;12.35;;;;;;;;;;5053938;28;20408;-83
2023/01/27 05:53:19;;;;;;;13.57;12.17;;;;;;;;;;5050187;28;20389;-83
2023/01/27 05:55:45;;;;;;;14.02;12.63;;;;;;;;;;5035640;28;20459;-83
2023/01/27 05:58:11;;;;;;;13.10;11.80;;;;;;;;;;5035708;28;20390;-83
2023/01/27 06:00:37;;;;;;;13.27;11.98;;;;;;;;;;5051339;28;20425;-83
2023/01/27 06:03:03;;;;;;;12.80;11.40;;;;;;;;;;5050161;28;20862;-83
2023/01/27 06:05:28;;;;;;;14.05;12.55;;;;;;;;;;5052016;28;20405;-83
2023/01/27 06:07:54;;;;;;;12.52;11.32;;;;;;;;;;5052212;28;21042;-83
2023/01/27 06:10:20;;;;;;;12.85;11.55;;;;;;;;;;5052062;28;20405;-83
2023/01/27 06:12:46;;;;;;;12.10;10.98;;;;;;;;;;5047071;28;20936;-83
2023/01/27 06:15:14;;;;;;;13.37;11.97;;;;;;;;;;5029589;28;23426;-83
2023/01/27 06:17:40;;;;;;;13.68;12.27;;;;;;;;;;5034602;28;20433;-83
2023/01/27 06:20:06;;;;;;;13.13;11.82;;;;;;;;;;5052331;28;20859;-83
2023/01/27 06:22:35;;;;;;;12.95;11.65;;;;;;;;;;5048625;28;20476;-83
2023/01/27 06:25:04;;;;;;;12.57;11.38;;;;;;;;;;5051825;28;20409;-83
2023/01/27 06:27:30;;;;;;;12.13;11.02;;;;;;;;;;5052101;28;20472;-83
2023/01/27 06:29:56;;;;;;;12.70;11.40;;;;;;;;;;5034397;28;20386;-83
2023/01/27 06:32:22;;;;;;;12.50;11.35;;;;;;;;;;5051301;28;20428;-83
2023/01/27 06:34:48;;;;;;;12.95;11.70;;;;;;;;;;5051525;28;20903;-83
2023/01/27 06:37:17;;;;;;;13.37;11.97;;;;;;;;;;5051857;28;20405;-83
2023/01/27 06:39:43;;;;;;;12.90;11.70;;;;;;;;;;5051641;28;20402;-83
2023/01/27 06:42:08;;;;;;;12.55;11.35;;;;;;;;;;5031235;28;20935;-82
2023/01/27 06:44:34;;;;;;;12.93;11.60;;;;;;;;;;5049171;28;20466;-84
2023/01/27 06:47:00;;;;;;;12.32;11.23;;;;;;;;;;5051664;28;20393;-84
2023/01/27 06:49:26;;;;;;;12.03;11.00;;;;;;;;;;5032687;28;20389;-84
2023/01/27 06:51:52;;;;;;;12.75;11.45;;;;;;;;;;5051402;28;20381;-84
2023/01/27 06:54:18;;;;;;;12.67;11.37;;;;;;;;;;5052027;28;20413;-84
2023/01/27 06:56:44;;;;;;;13.07;11.75;;;;;;;;;;5051093;28;20949;-84
2023/01/27 06:59:10;;;;;;;13.23;11.85;;;;;;;;;;5048964;28;20392;-85
2023/01/27 07:01:36;;;;;;;13.25;12.05;;;;;;;;;;5051354;28;20385;-84
2023/01/27 07:04:02;;;;;;;12.82;11.45;;;;;;;;;;5033875;28;20445;-84
2023/01/27 07:06:28;;;;;;;12.85;11.55;;;;;;;;;;5051114;28;20385;-83
2023/01/27 07:08:54;;;;;;;13.98;12.68;;;;;;;;;;5047904;28;20397;-84
2023/01/27 07:11:21;;;;;;;13.63;12.32;;;;;;;;;;5046162;28;20408;-84
2023/01/27 07:13:47;;;;;;;13.15;11.90;;;;;;;;;;5050042;28;20381;-83
2023/01/27 07:16:13;;;;;;;13.35;12.05;;;;;;;;;;5043948;28;20907;-83
2023/01/27 07:18:39;;;;;;;13.70;12.38;;;;;;;;;;5026561;28;20487;-83
2023/01/27 07:21:05;;;;;;;14.48;13.05;;;;;;;;;;5048708;28;20390;-84
2023/01/27 07:23:31;;;;;;;13.60;12.30;;;;;;;;;;5051422;28;20473;-84
2023/01/27 07:26:00;;;;;;;13.48;12.18;;;;;;;;;;5053790;28;20389;-84
2023/01/27 07:28:26;;;;;;;13.00;11.70;;;;;;;;;;5033035;28;20385;-84
2023/01/27 07:30:52;;;;;;;14.20;12.70;;;;;;;;;;5054848;28;20903;-84
2023/01/27 07:33:18;;;;;;;13.80;12.40;;;;;;;;;;5053182;28;20412;-84
2023/01/27 07:35:48;;;;;;;13.23;11.95;;;;;;;;;;5053026;28;20929;-83
2023/01/27 07:38:14;;;;;;;12.90;11.60;;;;;;;;;;5054036;28;20445;-84
2023/01/27 07:40:40;;;;;;;12.63;11.35;;;;;;;;;;5035732;28;20391;-83
2023/01/27 07:43:06;;;;;;;13.30;11.90;;;;;;;;;;5046685;28;20469;-84
2023/01/27 07:45:32;;;;;;;14.15;11.32;;;;;;;;;;5050974;28;20408;-84
2023/01/27 07:48:02;;;;;;;12.55;11.35;;;;;;;;;;5050939;28;20865;-84
2023/01/27 07:50:28;;;;;;;12.73;11.50;;;;;;;;;;5051026;28;20381;-84
2023/01/27 07:52:57;;;;;;;13.07;11.85;;;;;;;;;;5051069;28;20381;-83
2023/01/27 07:55:23;;;;;;;12.73;11.43;;;;;;;;;;5050975;28;20921;-84
2023/01/27 07:57:52;;;;;;;15.18;12.73;;;;;;;;;;5052028;28;20413;-84
2023/01/27 08:00:20;;;;;;;13.13;11.73;;;;;;;;;;5050743;28;20385;-84
2023/01/27 08:02:49;;;;;;;12.93;11.63;;;;;;;;;;5050852;28;20388;-84
2023/01/27 08:05:15;;;;;;;12.57;11.38;;;;;;;;;;5050473;28;20405;-84
2023/01/27 08:07:41;;;;;;;13.15;11.85;;;;;;;;;;5047073;28;20392;-84
2023/01/27 08:10:07;;;;;;;12.25;11.05;;;;;;;;;;5056044;28;20738;-84
2023/01/27 08:12:33;;;;;;;12.63;11.23;;;;;;;;;;5063377;28;20385;-84
2023/01/27 08:14:59;;;;;;;12.80;11.60;;;;;;;;;;5063470;28;20389;-84
2023/01/27 08:17:25;;;;;;;13.65;12.25;;;;;;;;;;5069258;28;20373;-82
2023/01/27 08:19:51;;;;;;;13.25;11.85;;;;;;;;;;5070756;28;20389;-84
2023/01/27 08:22:21;;;;;;;12.18;10.98;;;;;;;;;;5063841;28;20389;-84
2023/01/27 08:24:50;;;;;;;12.93;11.70;;;;;;;;;;5056293;28;20540;-84
2023/01/27 08:27:16;;;;;;;13.43;12.05;;;;;;;;;;5056105;28;20392;-84
2023/01/27 08:29:43;;;;;;;21.20;15.98;;;;;;;;;;5055657;28;20377;-84
2023/01/27 08:32:09;;;;;;;15.90;13.38;;;;;;;;;;5037705;28;20855;-84
2023/01/27 08:34:36;;;;;;;14.20;12.25;;;;;;;;;;5055327;28;20410;-84
2023/01/27 08:37:02;;;;;;;13.27;12.07;;;;;;;;;;5055726;28;20475;-84
2023/01/27 08:39:28;;;;;;;13.10;11.90;;;;;;;;;;5055294;28;20377;-84
2023/01/27 08:41:54;;;;;;;12.52;11.43;;;;;;;;;;5037510;28;20970;-84
2023/01/27 08:44:20;;;;;;;14.18;12.77;;;;;;;;;;5055098;28;20499;-84
2023/01/27 08:46:46;;;;;;;16.75;13.40;;;;;;;;;;5049406;28;20367;-84
2023/01/27 08:49:13;;;;;;;13.52;12.30;;;;;;;;;;5046236;28;20874;-84
2023/01/27 08:51:39;;;;;;;13.80;12.50;;;;;;;;;;5054531;28;20417;-84
2023/01/27 08:54:06;;;;;;;16.58;14.88;;;;;;;;;;5054930;28;20403;-84
2023/01/27 08:56:32;;;;;;;26.90;18.95;;;;;;;;;;5055116;28;20396;-84
2023/01/27 08:58:58;;;;;;;18.93;16.13;;;;;;;;;;5036782;28;20388;-85
2023/01/27 09:01:24;;;;;;;16.92;15.10;;;;;;;;;;5054887;28;20381;-84
2023/01/27 09:03:50;;;;;;;17.57;15.40;;;;;;;;;;5054745;28;20381;-84
2023/01/27 09:06:16;;;;;;;14.70;12.50;;;;;;;;;;5037104;28;20882;-84
2023/01/27 09:08:43;;;;;;;13.77;12.38;;;;;;;;;;5054733;28;20413;-84
2023/01/27 09:11:10;;;;;;;13.32;12.13;;;;;;;;;;5054881;28;20380;-84
2023/01/27 09:13:36;;;;;;;13.32;12.02;;;;;;;;;;5054561;28;20388;-84
2023/01/27 09:16:02;;;;;;;14.52;12.95;;;;;;;;;;5054477;28;20378;-83
2023/01/27 09:18:28;;;;;;;13.43;12.05;;;;;;;;;;5054616;28;20712;-81
2023/01/27 09:20:54;;;;;;;25.60;18.77;;;;;;;;;;5054075;28;20373;-84
2023/01/27 09:23:20;;;;;;;13.15;11.55;;;;;;;;;;5054362;28;20799;-85
2023/01/27 09:25:46;;;;;;;13.23;11.80;;;;;;;;;;5054132;28;20402;-85
2023/01/27 09:28:15;;;;;;;13.00;11.77;;;;;;;;;;5048090;28;20383;-84
2023/01/27 09:30:43;;;;;;;13.15;11.77;;;;;;;;;;5047382;28;20377;-84
2023/01/27 09:33:09;;;;;;;13.55;12.23;;;;;;;;;;5044507;28;20427;-84
2023/01/27 09:35:55;;;;;;;11.95;10.85;;;;;;;;;;5053962;28;20413;-84
2023/01/27 09:38:22;;;;;;;12.82;11.52;;;;;;;;;;5036077;28;20732;-84
2023/01/27 09:41:00;;;;;;;12.77;11.57;;;;;;;;;;5054138;28;20411;-83
2023/01/27 09:43:26;;;;;;;11.90;10.70;;;;;;;;;;5036007;28;20381;-85
2023/01/27 09:45:56;;;;;;;11.73;10.68;;;;;;;;;;5053864;28;20416;-84
2023/01/27 09:48:22;;;;;;;11.60;10.50;;;;;;;;;;5053716;28;20443;-84
2023/01/27 09:50:55;;;;;;;11.93;10.82;;;;;;;;;;5053874;28;20472;-84
2023/01/27 09:53:46;;;;;;;11.98;10.77;;;;;;;;;;5053820;28;20738;-85
2023/01/27 09:56:19;;;;;;;10.40;9.45;;;;;;;;;;5053701;28;20377;-84
2023/01/27 09:58:45;;;;;;;10.93;9.85;;;;;;;;;;5053517;28;20404;-84
2023/01/27 10:01:17;;;;;;;10.53;9.53;;;;;;;;;;5053617;28;20385;-84
2023/01/27 10:03:43;;;;;;;10.80;9.73;;;;;;;;;;5053313;28;20378;-84
2023/01/27 10:06:11;;;;;;;11.27;9.83;;;;;;;;;;5053733;28;20377;-84
2023/01/27 10:08:59;;;;;;;10.85;9.85;;;;;;;;;;5053455;28;20736;-84
2023/01/27 10:11:25;;;;;;;11.30;10.20;;;;;;;;;;5053244;28;20382;-84
2023/01/27 10:14:05;;;;;;;10.10;9.20;;;;;;;;;;5053185;28;20508;-84
2023/01/27 10:16:40;;;;;;;11.50;10.40;;;;;;;;;;5053481;28;20460;-85
2023/01/27 10:19:13;;;;;;;9.85;8.95;;;;;;;;;;5053023;28;20382;-84
2023/01/27 10:21:43;;;;;;;11.00;9.43;;;;;;;;;;5053096;28;20461;-84
2023/01/27 10:24:32;;;;;;;10.57;9.55;;;;;;;;;;5052861;28;20424;-84
2023/01/27 10:27:21;;;;;;;12.07;9.93;;;;;;;;;;5044964;28;20385;-84
2023/01/27 10:29:54;;;;;;;11.18;9.82;;;;;;;;;;5054790;28;20442;-85
2023/01/27 10:32:25;;;;;;;11.70;10.50;;;;;;;;;;5052849;28;20448;-84
2023/01/27 10:34:57;;;;;;;11.27;10.13;;;;;;;;;;5053145;28;20514;-84
2023/01/27 10:37:44;;;;;;;11.48;10.25;;;;;;;;;;5053512;28;20449;-84
2023/01/27 10:40:23;;;;;;;11.23;9.60;;;;;;;;;;5052834;28;20438;-84
2023/01/27 10:43:13;;;;;;;11.43;10.27;;;;;;;;;;5034969;28;20949;-84
2023/01/27 10:45:53;;;;;;;11.63;10.43;;;;;;;;;;5052720;28;20437;-84
2023/01/27 10:48:29;;;;;;;15.73;10.70;;;;;;;;;;5052187;28;20862;-84
2023/01/27 10:50:55;;;;;;;13.48;10.25;;;;;;;;;;5052424;28;20377;-84
2023/01/27 10:53:30;;;;;;;11.70;10.50;;;;;;;;;;5052076;28;20429;-84
2023/01/27 10:55:56;;;;;;;11.52;10.32;;;;;;;;;;5052621;28;20389;-84
2023/01/27 10:58:41;;;;;;;12.60;11.10;;;;;;;;;;5052562;28;20870;-84
2023/01/27 11:01:10;;;;;;;13.40;11.32;;;;;;;;;;5044301;28;20443;-83
2023/01/27 11:03:56;;;;;;;12.18;10.63;;;;;;;;;;5049060;28;20393;-84
2023/01/27 11:06:23;;;;;;;16.88;11.20;;;;;;;;;;5045124;28;20434;-84
2023/01/27 11:08:55;;;;;;;15.10;11.05;;;;;;;;;;5052445;28;20431;-83
2023/01/27 11:14:36;;;;;;;11.35;10.25;;;;;;;;;;5052587;28;20427;-84
2023/01/27 11:17:21;;;;;;;12.50;10.90;;;;;;;;;;5032174;28;20389;-83
2023/01/27 11:19:57;;;;;;;14.67;12.23;;;;;;;;;;5052294;28;20395;-84
2023/01/27 11:22:26;;;;;;;12.80;11.45;;;;;;;;;;5052297;28;20382;-84
2023/01/27 11:24:59;;;;;;;13.82;10.48;;;;;;;;;;5048605;28;20432;-84
2023/01/27 11:27:51;;;;;;;14.30;11.70;;;;;;;;;;5036619;28;20479;-83
2023/01/27 11:30:27;;;;;;;13.45;11.75;;;;;;;;;;5047866;28;20402;-83
2023/01/27 11:33:02;;;;;;;11.57;9.98;;;;;;;;;;5051516;28;20455;-84
2023/01/27 11:35:28;;;;;;;12.18;10.80;;;;;;;;;;5052601;28;20471;-84
2023/01/27 11:37:54;;;;;;;11.32;10.13;;;;;;;;;;5056296;28;20851;-83
2023/01/27 11:40:35;;;;;;;11.07;9.15;;;;;;;;;;5058381;28;20390;-83
2023/01/27 11:43:01;;;;;;;10.38;9.38;;;;;;;;;;5067076;28;20469;-81
2023/01/27 11:45:30;;;;;;;10.48;8.63;;;;;;;;;;5066217;28;20417;-83
2023/01/27 11:48:00;;;;;;;10.48;9.48;;;;;;;;;;5061383;28;20866;-84
2023/01/27 11:50:31;;;;;;;10.02;9.02;;;;;;;;;;5057322;28;20754;-84
2023/01/27 11:53:10;;;;;;;10.40;9.13;;;;;;;;;;5056380;28;20952;-83
2023/01/27 11:55:41;;;;;;;10.00;9.10;;;;;;;;;;5053108;28;20460;-84
2023/01/27 11:58:11;;;;;;;12.32;10.13;;;;;;;;;;5055540;28;20385;-85
2023/01/27 12:00:40;;;;;;;10.32;9.32;;;;;;;;;;5052963;28;20377;-84
2023/01/27 12:03:08;;;;;;;10.13;9.05;;;;;;;;;;5055012;28;20446;-84
2023/01/27 12:05:36;;;;;;;10.40;9.27;;;;;;;;;;5052129;28;20454;-84
2023/01/27 12:08:03;;;;;;;10.80;9.70;;;;;;;;;;5054680;28;20460;-84
2023/01/27 12:10:41;;;;;;;11.45;10.00;;;;;;;;;;5054078;28;20810;-84
2023/01/27 12:13:20;;;;;;;11.43;10.33;;;;;;;;;;5042653;28;20387;-84
2023/01/27 12:15:53;;;;;;;10.80;9.80;;;;;;;;;;5051967;28;20438;-84
2023/01/27 12:18:22;;;;;;;13.55;10.95;;;;;;;;;;5055947;28;20392;-84
2023/01/27 12:20:56;;;;;;;11.40;10.18;;;;;;;;;;5055442;28;20439;-84
2023/01/27 12:23:26;;;;;;;13.45;10.60;;;;;;;;;;5055102;28;20381;-85
2023/01/27 12:25:57;;;;;;;11.73;10.53;;;;;;;;;;5036762;28;20411;-85
2023/01/27 12:28:30;;;;;;;11.60;10.40;;;;;;;;;;5054479;28;20750;-84
2023/01/27 12:30:57;;;;;;;11.95;10.75;;;;;;;;;;5054112;28;20384;-84
2023/01/27 12:33:27;;;;;;;18.40;10.75;;;;;;;;;;5055264;28;20416;-84
2023/01/27 12:35:57;;;;;;;11.65;10.40;;;;;;;;;;5054343;28;20409;-84
2023/01/27 12:38:24;;;;;;;13.05;11.38;;;;;;;;;;5041909;28;20401;-84
2023/01/27 12:40:56;;;;;;;12.25;11.00;;;;;;;;;;5054145;28;20484;-82
2023/01/27 12:43:23;;;;;;;11.88;10.68;;;;;;;;;;5045530;28;20457;-83
2023/01/27 12:46:04;;;;;;;12.05;10.85;;;;;;;;;;5039626;28;20411;-82
2023/01/27 12:48:32;;;;;;;11.93;10.70;;;;;;;;;;5034047;28;20470;-82
2023/01/27 12:51:14;;;;;;;12.57;11.27;;;;;;;;;;5034129;28;20493;-82
2023/01/27 12:53:42;;;;;;;12.57;11.35;;;;;;;;;;5038227;28;20390;-82
2023/01/27 12:56:11;;;;;;;12.55;11.25;;;;;;;;;;5036323;28;20387;-82
2023/01/27 12:58:39;;;;;;;13.05;11.73;;;;;;;;;;5039097;28;20385;-82
2023/01/27 13:01:05;;;;;;;13.43;11.70;;;;;;;;;;5035420;28;20474;-82
2023/01/27 13:03:31;;;;;;;13.27;11.95;;;;;;;;;;5034241;28;20433;-81
2023/01/27 13:05:58;;;;;;;13.57;11.77;;;;;;;;;;5033592;28;20464;-82
2023/01/27 13:08:25;;;;;;;14.07;12.30;;;;;;;;;;5037796;28;20395;-82
2023/01/27 13:10:53;;;;;;;13.32;11.98;;;;;;;;;;5035927;28;20394;-82
2023/01/27 13:13:21;;;;;;;14.63;12.40;;;;;;;;;;5038859;28;20375;-82
2023/01/27 13:16:08;;;;;;;14.23;11.90;;;;;;;;;;5035657;28;20443;-81
2023/01/27 13:18:37;;;;;;;12.82;11.45;;;;;;;;;;5038522;28;20375;-82
2023/01/27 13:21:14;;;;;;;13.88;11.50;;;;;;;;;;5038866;28;20378;-83
2023/01/27 13:23:41;;;;;;;12.30;11.10;;;;;;;;;;5018743;28;20384;-82
2023/01/27 13:26:07;;;;;;;13.43;11.25;;;;;;;;;;5036811;28;20382;-82
2023/01/27 13:28:39;;;;;;;13.70;11.73;;;;;;;;;;5033850;28;20390;-82
2023/01/27 13:31:07;;;;;;;13.85;11.32;;;;;;;;;;5034731;28;20383;-82
2023/01/27 13:33:41;;;;;;;15.15;12.02;;;;;;;;;;5033783;28;20375;-82
2023/01/27 13:36:43;;;;;;;12.98;11.45;;;;;;;;;;5033923;28;20403;-82
2023/01/27 13:39:12;;;;;;;12.30;11.00;;;;;;;;;;4957301;28;20441;-81
2023/01/27 13:41:54;;;;;;;12.40;11.00;;;;;;;;;;5038712;28;20409;-81
2023/01/27 13:44:29;;;;;;;13.07;11.63;;;;;;;;;;5054019;28;20479;-81
2023/01/27 13:47:00;;;;;;;12.57;11.30;;;;;;;;;;5053997;28;20377;-81
2023/01/27 13:49:26;;;;;;;11.98;10.77;;;;;;;;;;5053838;28;20382;-81
2023/01/27 13:51:52;;;;;;;11.80;10.60;;;;;;;;;;5053753;28;20405;-82
2023/01/27 13:54:18;;;;;;;12.38;11.18;;;;;;;;;;5053695;28;20393;-82
2023/01/27 13:56:52;;;;;;;11.43;10.32;;;;;;;;;;5053685;28;20381;-82
2023/01/27 13:59:27;;;;;;;10.88;9.88;;;;;;;;;;5053650;28;20847;-82
2023/01/27 14:01:58;;;;;;;11.27;10.07;;;;;;;;;;5053608;28;20435;-81
2023/01/27 14:04:27;;;;;;;11.10;10.00;;;;;;;;;;5053538;28;20905;-82
2023/01/27 14:07:10;;;;;;;12.25;10.35;;;;;;;;;;5052329;28;20385;-82
2023/01/27 14:09:45;;;;;;;11.30;10.03;;;;;;;;;;5053405;28;20821;-81
2023/01/27 14:12:29;;;;;;;11.40;10.27;;;;;;;;;;5031976;28;20880;-82
2023/01/27 14:15:15;;;;;;;12.43;10.57;;;;;;;;;;5040865;28;20521;-81
2023/01/27 14:17:41;;;;;;;11.50;10.30;;;;;;;;;;5051341;28;20454;-80
2023/01/27 14:20:23;;;;;;;12.20;10.98;;;;;;;;;;5053304;28;20406;-80
2023/01/27 14:23:14;;;;;;;11.75;10.38;;;;;;;;;;5053189;28;20377;-81
2023/01/27 14:25:48;;;;;;;11.75;10.55;;;;;;;;;;5053057;28;20404;-81
2023/01/27 14:28:21;;;;;;;11.70;10.50;;;;;;;;;;5053457;28;20441;-81
2023/01/27 14:30:53;;;;;;;10.60;9.60;;;;;;;;;;5053093;28;20516;-82
2023/01/27 14:33:27;;;;;;;10.68;9.57;;;;;;;;;;5053005;28;20459;-80
2023/01/27 14:35:53;;;;;;;11.20;10.20;;;;;;;;;;5052866;28;20393;-81
2023/01/27 14:38:28;;;;;;;10.98;9.57;;;;;;;;;;5052830;28;20393;-82
2023/01/27 14:41:13;;;;;;;10.25;9.20;;;;;;;;;;5052808;28;20382;-82
2023/01/27 14:43:43;;;;;;;10.10;9.10;;;;;;;;;;5049698;28;20389;-82
2023/01/27 14:46:08;;;;;;;10.57;9.48;;;;;;;;;;5048183;28;20747;-82
2023/01/27 14:48:39;;;;;;;19.23;11.27;;;;;;;;;;5052696;28;20378;-82
2023/01/27 14:51:10;;;;;;;10.85;9.35;;;;;;;;;;5052411;28;20910;-81
2023/01/27 14:53:52;;;;;;;10.82;9.52;;;;;;;;;;5051684;28;20385;-83
2023/01/27 14:56:28;;;;;;;11.23;9.77;;;;;;;;;;5050967;28;20385;-83
2023/01/27 14:59:05;;;;;;;10.73;9.73;;;;;;;;;;5052615;28;20381;-83
2023/01/27 15:02:04;;;;;;;11.20;10.00;;;;;;;;;;5050818;28;20535;-82
2023/01/27 15:04:54;;;;;;;9.97;8.83;;;;;;;;;;5014330;28;20407;-80
2023/01/27 15:07:40;;;;;;;10.10;9.02;;;;;;;;;;5048919;28;20373;-81
2023/01/27 15:10:26;;;;;;;9.93;8.98;;;;;;;;;;5053733;28;20381;-81
2023/01/27 15:12:58;;;;;;;11.00;9.25;;;;;;;;;;5070159;28;20385;-81
2023/01/27 15:15:42;;;;;;;11.05;9.95;;;;;;;;;;5063616;28;20392;-82
2023/01/27 15:18:14;;;;;;;10.30;9.30;;;;;;;;;;5051481;28;21069;-82